Time;durP1;ratioP1;P1;durP2;ratioP2;P2;SDS_P1;SDS_P2;PMS_P1;PMS_P2;Temp;Humidity;BMP_temperature;BMP_pressure;BME280_temperature;BME280_humidity;BME280_pressure;Samples;Min_cycle;Max_cycle;Signal;HPM_P1;HPM_P2
2023/06/16 00:01:23;;;;;;;14.82;9.32;;;;;;;;;;5057447;28;20111;-73
2023/06/16 00:03:49;;;;;;;11.70;9.25;;;;;;;;;;5075709;28;20020;-75
2023/06/16 00:06:15;;;;;;;12.50;9.43;;;;;;;;;;5075795;28;20016;-74
2023/06/16 00:08:44;;;;;;;17.55;9.82;;;;;;;;;;5057478;28;20377;-74
2023/06/16 00:11:10;;;;;;;13.98;10.10;;;;;;;;;;5075100;28;20021;-74
2023/06/16 00:13:35;;;;;;;18.02;9.57;;;;;;;;;;5075391;28;20028;-72
2023/06/16 00:16:00;;;;;;;11.80;9.63;;;;;;;;;;5075547;28;20477;-74
2023/06/16 00:18:27;;;;;;;13.55;9.70;;;;;;;;;;5075546;28;20434;-73
2023/06/16 00:20:54;;;;;;;15.85;10.60;;;;;;;;;;5056930;28;20182;-74
2023/06/16 00:23:20;;;;;;;14.52;9.98;;;;;;;;;;5057246;28;20017;-73
2023/06/16 00:25:45;;;;;;;16.25;10.23;;;;;;;;;;5075159;28;20374;-74
2023/06/16 00:28:11;;;;;;;16.98;10.57;;;;;;;;;;5056974;28;20107;-74
2023/06/16 00:30:36;;;;;;;13.52;10.32;;;;;;;;;;5056977;28;20103;-75
2023/06/16 00:33:01;;;;;;;13.13;9.68;;;;;;;;;;5075066;28;20165;-72
2023/06/16 00:35:26;;;;;;;15.63;9.90;;;;;;;;;;5075085;28;20044;-74
2023/06/16 00:37:52;;;;;;;13.77;9.85;;;;;;;;;;5074834;28;20074;-74
2023/06/16 00:40:17;;;;;;;13.73;10.02;;;;;;;;;;5056746;28;20044;-74
2023/06/16 00:42:42;;;;;;;22.98;9.85;;;;;;;;;;5074839;28;20013;-74
2023/06/16 00:45:08;;;;;;;13.40;9.98;;;;;;;;;;5074622;28;20028;-74
2023/06/16 00:47:34;;;;;;;14.40;11.10;;;;;;;;;;5056770;28;20013;-73
2023/06/16 00:49:59;;;;;;;15.10;10.23;;;;;;;;;;5074521;28;20021;-73
2023/06/16 00:52:27;;;;;;;15.05;10.90;;;;;;;;;;5074875;28;20104;-74
2023/06/16 00:54:55;;;;;;;16.38;11.18;;;;;;;;;;5074508;28;20021;-75
2023/06/16 00:57:20;;;;;;;14.52;10.75;;;;;;;;;;5056323;28;20028;-73
2023/06/16 00:59:46;;;;;;;17.70;12.88;;;;;;;;;;5074233;28;20021;-74
2023/06/16 01:02:13;;;;;;;17.42;11.95;;;;;;;;;;5074302;28;20024;-74
2023/06/16 01:04:38;;;;;;;16.90;11.55;;;;;;;;;;5074474;28;20103;-74
2023/06/16 01:07:11;;;;;;;15.20;11.88;;;;;;;;;;5074254;28;20051;-73
2023/06/16 01:09:39;;;;;;;16.10;11.73;;;;;;;;;;5073233;28;20037;-74
2023/06/16 01:12:23;;;;;;;16.63;12.48;;;;;;;;;;5074053;28;20416;-74
2023/06/16 01:14:56;;;;;;;17.65;11.77;;;;;;;;;;5072756;28;20115;-74
2023/06/16 01:17:22;;;;;;;17.90;11.30;;;;;;;;;;5074087;28;20019;-74
2023/06/16 01:20:07;;;;;;;14.75;11.27;;;;;;;;;;5072319;28;20127;-74
2023/06/16 01:22:51;;;;;;;16.38;11.95;;;;;;;;;;5072657;28;20089;-74
2023/06/16 01:25:22;;;;;;;18.08;12.57;;;;;;;;;;5072415;28;20142;-74
2023/06/16 01:27:48;;;;;;;26.00;12.50;;;;;;;;;;5072136;28;20050;-75
2023/06/16 01:30:15;;;;;;;20.52;13.13;;;;;;;;;;5071572;28;20473;-73
2023/06/16 01:32:43;;;;;;;16.20;12.05;;;;;;;;;;5053571;28;20488;-75
2023/06/16 01:35:09;;;;;;;17.98;11.88;;;;;;;;;;5053449;28;20043;-74
2023/06/16 01:37:34;;;;;;;18.70;12.07;;;;;;;;;;5053551;28;20389;-75
2023/06/16 01:40:00;;;;;;;18.27;11.88;;;;;;;;;;5071581;28;20032;-75
2023/06/16 01:42:25;;;;;;;18.67;12.18;;;;;;;;;;5071556;28;20082;-74
2023/06/16 01:44:51;;;;;;;17.70;12.68;;;;;;;;;;5053439;28;20017;-75
2023/06/16 01:47:17;;;;;;;14.77;11.57;;;;;;;;;;5071588;28;20025;-76
2023/06/16 01:49:42;;;;;;;22.98;11.18;;;;;;;;;;5071715;28;20100;-76
2023/06/16 01:52:08;;;;;;;16.40;10.18;;;;;;;;;;5072545;28;20028;-75
2023/06/16 01:54:33;;;;;;;15.25;11.02;;;;;;;;;;5076061;28;20025;-74
2023/06/16 01:56:59;;;;;;;19.30;10.73;;;;;;;;;;5076109;28;20052;-73
2023/06/16 01:59:24;;;;;;;17.40;10.05;;;;;;;;;;5076230;28;20017;-74
2023/06/16 02:01:51;;;;;;;11.27;8.82;;;;;;;;;;5074502;28;20016;-74
2023/06/16 02:04:20;;;;;;;18.70;11.25;;;;;;;;;;5056382;28;20039;-73
2023/06/16 02:06:51;;;;;;;17.38;10.05;;;;;;;;;;5074154;28;20024;-75
2023/06/16 02:09:17;;;;;;;14.05;10.63;;;;;;;;;;5055172;28;20028;-73
2023/06/16 02:11:42;;;;;;;16.70;10.05;;;;;;;;;;5073204;28;20029;-73
2023/06/16 02:14:08;;;;;;;14.57;9.95;;;;;;;;;;5073185;28;20029;-73
2023/06/16 02:16:42;;;;;;;15.52;9.93;;;;;;;;;;5073185;28;20449;-74
2023/06/16 02:19:07;;;;;;;18.15;9.85;;;;;;;;;;5072774;28;20115;-74
2023/06/16 02:21:33;;;;;;;16.27;10.32;;;;;;;;;;5073084;28;20108;-73
2023/06/16 02:23:58;;;;;;;13.82;10.48;;;;;;;;;;5073059;28;20453;-73
2023/06/16 02:26:24;;;;;;;14.57;9.88;;;;;;;;;;5072945;28;20062;-73
2023/06/16 02:28:50;;;;;;;18.77;10.02;;;;;;;;;;5054703;28;20090;-73
2023/06/16 02:31:18;;;;;;;19.35;9.95;;;;;;;;;;5052776;28;20444;-75
2023/06/16 02:33:44;;;;;;;18.02;10.43;;;;;;;;;;5070458;28;20032;-74
2023/06/16 02:36:09;;;;;;;21.30;11.00;;;;;;;;;;5070498;28;20086;-75
2023/06/16 02:38:35;;;;;;;14.27;10.57;;;;;;;;;;5053040;28;20480;-76
2023/06/16 02:41:00;;;;;;;17.00;10.63;;;;;;;;;;5070993;28;20086;-75
2023/06/16 02:43:25;;;;;;;13.88;10.68;;;;;;;;;;5052910;28;20406;-76
2023/06/16 02:45:51;;;;;;;14.27;10.40;;;;;;;;;;5070826;28;20032;-75
2023/06/16 02:48:16;;;;;;;17.88;10.07;;;;;;;;;;5072419;28;20055;-74
2023/06/16 02:50:41;;;;;;;17.10;10.70;;;;;;;;;;5072675;28;20419;-74
2023/06/16 02:53:07;;;;;;;16.90;10.02;;;;;;;;;;5072826;28;20354;-73
2023/06/16 02:55:32;;;;;;;16.02;10.90;;;;;;;;;;5072431;28;20032;-74
2023/06/16 02:57:57;;;;;;;15.35;10.68;;;;;;;;;;5072393;28;20072;-74
2023/06/16 03:00:22;;;;;;;14.15;10.43;;;;;;;;;;5054412;28;20595;-75
2023/06/16 03:02:48;;;;;;;16.67;10.85;;;;;;;;;;5072556;28;20513;-74
2023/06/16 03:05:17;;;;;;;13.93;10.38;;;;;;;;;;5072590;28;20048;-74
2023/06/16 03:07:44;;;;;;;16.15;10.30;;;;;;;;;;5072391;28;20017;-73
2023/06/16 03:10:09;;;;;;;17.00;10.10;;;;;;;;;;5072376;28;20086;-73
2023/06/16 03:12:34;;;;;;;15.80;9.65;;;;;;;;;;5072553;28;20024;-74
2023/06/16 03:15:00;;;;;;;13.48;9.73;;;;;;;;;;5072114;28;20025;-74
2023/06/16 03:17:25;;;;;;;12.38;9.23;;;;;;;;;;5072221;28;20043;-73
2023/06/16 03:19:51;;;;;;;11.73;9.65;;;;;;;;;;5071868;28;20094;-74
2023/06/16 03:22:16;;;;;;;18.17;10.15;;;;;;;;;;5072463;28;20108;-75
2023/06/16 03:24:44;;;;;;;12.75;10.13;;;;;;;;;;5072097;28;20062;-75
2023/06/16 03:27:09;;;;;;;11.13;8.90;;;;;;;;;;5054132;28;20115;-75
2023/06/16 03:29:36;;;;;;;14.68;9.23;;;;;;;;;;5053996;28;20470;-73
2023/06/16 03:32:02;;;;;;;16.58;9.73;;;;;;;;;;5055560;28;20469;-74
2023/06/16 03:34:29;;;;;;;11.68;9.27;;;;;;;;;;5076003;28;20020;-74
2023/06/16 03:36:54;;;;;;;13.73;9.13;;;;;;;;;;5057886;28;20024;-74
2023/06/16 03:39:20;;;;;;;12.48;8.93;;;;;;;;;;5076056;28;20043;-73
2023/06/16 03:41:45;;;;;;;13.10;9.57;;;;;;;;;;5057826;28;20477;-73
2023/06/16 03:44:11;;;;;;;14.20;9.48;;;;;;;;;;5075661;28;20024;-74
2023/06/16 03:46:38;;;;;;;13.65;9.90;;;;;;;;;;5075805;28;20042;-74
2023/06/16 03:49:07;;;;;;;16.27;9.73;;;;;;;;;;5075488;28;20016;-73
2023/06/16 03:51:47;;;;;;;11.48;9.13;;;;;;;;;;5075506;28;20024;-74
2023/06/16 03:54:14;;;;;;;13.00;9.18;;;;;;;;;;5075718;28;20093;-75
2023/06/16 03:56:40;;;;;;;14.82;9.10;;;;;;;;;;5040938;28;20040;-73
2023/06/16 03:59:09;;;;;;;15.55;8.82;;;;;;;;;;5057280;28;20029;-74
2023/06/16 04:01:38;;;;;;;15.70;8.85;;;;;;;;;;5057403;28;20082;-74
2023/06/16 04:04:09;;;;;;;12.35;8.75;;;;;;;;;;5075394;28;20077;-74
2023/06/16 04:06:36;;;;;;;17.60;9.52;;;;;;;;;;5075403;28;20104;-75
2023/06/16 04:09:02;;;;;;;11.18;8.68;;;;;;;;;;5057301;28;20028;-75
2023/06/16 04:11:30;;;;;;;15.63;10.05;;;;;;;;;;5057834;28;20044;-74
2023/06/16 04:13:59;;;;;;;12.85;9.55;;;;;;;;;;5057393;28;20107;-74
2023/06/16 04:16:24;;;;;;;13.80;9.68;;;;;;;;;;5075521;28;20040;-73
2023/06/16 04:18:51;;;;;;;15.60;9.30;;;;;;;;;;5075079;28;20100;-74
2023/06/16 04:21:17;;;;;;;16.70;9.20;;;;;;;;;;5075264;28;20286;-74
2023/06/16 04:23:42;;;;;;;13.82;8.80;;;;;;;;;;5057079;28;20438;-73
2023/06/16 04:26:09;;;;;;;15.50;9.50;;;;;;;;;;5040811;28;20036;-75
2023/06/16 04:28:44;;;;;;;12.15;9.55;;;;;;;;;;5075128;28;20082;-75
2023/06/16 04:31:11;;;;;;;14.70;8.63;;;;;;;;;;5074873;28;20388;-74
2023/06/16 04:33:41;;;;;;;16.50;9.05;;;;;;;;;;5075557;28;20034;-71
2023/06/16 04:36:08;;;;;;;13.18;9.18;;;;;;;;;;5058164;28;20457;-71
2023/06/16 04:38:34;;;;;;;14.00;8.95;;;;;;;;;;5057113;28;20032;-71
2023/06/16 04:40:59;;;;;;;13.85;8.15;;;;;;;;;;5074394;28;20045;-70
2023/06/16 04:43:26;;;;;;;12.10;7.90;;;;;;;;;;5074009;28;20462;-74
2023/06/16 04:45:54;;;;;;;11.57;7.60;;;;;;;;;;5075163;28;20336;-71
2023/06/16 04:48:20;;;;;;;16.83;8.80;;;;;;;;;;5057353;28;20024;-71
2023/06/16 04:50:46;;;;;;;12.00;7.93;;;;;;;;;;5073773;28;20119;-68
2023/06/16 04:53:12;;;;;;;11.15;7.80;;;;;;;;;;5075148;28;20035;-71
2023/06/16 04:55:38;;;;;;;14.23;7.60;;;;;;;;;;5075302;28;20024;-67
2023/06/16 04:58:04;;;;;;;13.27;7.63;;;;;;;;;;5074754;28;20380;-68
2023/06/16 05:00:29;;;;;;;11.43;7.47;;;;;;;;;;5073525;28;20115;-68
2023/06/16 05:02:56;;;;;;;13.50;7.43;;;;;;;;;;5074975;28;20017;-74
2023/06/16 05:05:22;;;;;;;11.40;8.27;;;;;;;;;;5057027;28;20104;-73
2023/06/16 05:07:50;;;;;;;13.52;7.90;;;;;;;;;;5075021;28;20017;-74
2023/06/16 05:10:15;;;;;;;11.88;7.50;;;;;;;;;;5075655;28;20020;-74
2023/06/16 05:12:41;;;;;;;13.10;8.30;;;;;;;;;;5074747;28;20462;-73
2023/06/16 05:15:09;;;;;;;14.20;7.88;;;;;;;;;;5075114;28;20032;-76
2023/06/16 05:17:36;;;;;;;14.13;7.03;;;;;;;;;;5074431;28;20032;-75
2023/06/16 05:20:01;;;;;;;16.45;7.32;;;;;;;;;;5074629;28;20051;-76
2023/06/16 05:22:28;;;;;;;11.85;6.95;;;;;;;;;;5075188;28;20017;-77
2023/06/16 05:24:56;;;;;;;13.43;7.30;;;;;;;;;;5075990;28;20029;-76
2023/06/16 05:27:22;;;;;;;10.98;7.00;;;;;;;;;;5073934;28;20024;-72
2023/06/16 05:29:50;;;;;;;10.15;7.13;;;;;;;;;;5056771;28;20416;-73
2023/06/16 05:32:19;;;;;;;9.48;6.40;;;;;;;;;;5056701;28;20036;-72
2023/06/16 05:34:47;;;;;;;13.93;7.80;;;;;;;;;;5074734;28;20034;-72
2023/06/16 05:37:17;;;;;;;10.38;7.00;;;;;;;;;;5056748;28;20029;-72
2023/06/16 05:39:44;;;;;;;9.73;6.65;;;;;;;;;;5040186;28;20021;-72
2023/06/16 05:42:13;;;;;;;16.73;7.47;;;;;;;;;;5039827;28;20050;-72
2023/06/16 05:44:39;;;;;;;9.20;6.97;;;;;;;;;;5072826;28;20554;-72
2023/06/16 05:47:04;;;;;;;10.80;7.80;;;;;;;;;;5072358;28;20012;-72
2023/06/16 05:49:29;;;;;;;10.07;6.53;;;;;;;;;;5071957;28;20028;-72
2023/06/16 05:51:57;;;;;;;13.13;5.93;;;;;;;;;;5072012;28;20016;-71
2023/06/16 05:54:22;;;;;;;10.48;6.05;;;;;;;;;;5071177;28;20267;-73
2023/06/16 05:56:47;;;;;;;12.57;6.85;;;;;;;;;;5071375;28;20016;-72
2023/06/16 05:59:13;;;;;;;16.35;6.78;;;;;;;;;;5071283;28;20021;-71
2023/06/16 06:01:38;;;;;;;7.77;5.83;;;;;;;;;;5071292;28;20020;-73
2023/06/16 06:04:03;;;;;;;8.32;6.25;;;;;;;;;;5072202;28;20359;-71
2023/06/16 06:06:29;;;;;;;10.15;6.28;;;;;;;;;;5072491;28;20028;-71
2023/06/16 06:08:54;;;;;;;11.93;5.13;;;;;;;;;;5054334;28;20027;-72
2023/06/16 06:11:19;;;;;;;8.27;6.10;;;;;;;;;;5072934;28;20274;-72
2023/06/16 06:13:45;;;;;;;9.52;5.53;;;;;;;;;;5073457;28;20770;-71
2023/06/16 06:16:11;;;;;;;11.07;6.63;;;;;;;;;;5072849;28;20364;-67
2023/06/16 06:18:43;;;;;;;9.65;6.03;;;;;;;;;;5058570;28;20317;-69
2023/06/16 06:21:10;;;;;;;9.00;6.05;;;;;;;;;;5073023;28;20144;-68
2023/06/16 06:23:36;;;;;;;11.80;6.57;;;;;;;;;;5073356;28;20480;-69
2023/06/16 06:26:16;;;;;;;7.82;5.93;;;;;;;;;;5055303;28;20009;-70
2023/06/16 06:28:41;;;;;;;7.50;5.60;;;;;;;;;;5073083;28;20469;-69
2023/06/16 06:31:08;;;;;;;8.05;5.43;;;;;;;;;;5073153;28;20059;-70
2023/06/16 06:33:34;;;;;;;9.23;5.63;;;;;;;;;;5073067;28;20012;-69
2023/06/16 06:36:00;;;;;;;10.00;5.35;;;;;;;;;;5054825;28;20111;-70
2023/06/16 06:38:27;;;;;;;9.93;6.20;;;;;;;;;;5073204;28;20032;-71
2023/06/16 06:40:53;;;;;;;12.05;6.35;;;;;;;;;;5073087;28;20420;-69
2023/06/16 06:43:19;;;;;;;9.63;5.63;;;;;;;;;;5072960;28;20060;-70
2023/06/16 06:45:47;;;;;;;8.02;5.68;;;;;;;;;;5070976;28;20089;-70
2023/06/16 06:48:12;;;;;;;9.05;5.20;;;;;;;;;;5054823;28;20016;-70
2023/06/16 06:50:38;;;;;;;8.10;5.20;;;;;;;;;;5072999;28;20021;-73
2023/06/16 06:53:05;;;;;;;5.45;4.95;;;;;;;;;;5072933;28;20028;-73
2023/06/16 06:55:31;;;;;;;8.43;4.85;;;;;;;;;;5073026;28;20013;-72
2023/06/16 06:57:57;;;;;;;6.90;4.93;;;;;;;;;;5072800;28;20338;-71
2023/06/16 07:00:23;;;;;;;5.50;4.50;;;;;;;;;;5073098;28;20063;-70
2023/06/16 07:02:48;;;;;;;6.50;4.97;;;;;;;;;;5073219;28;20090;-69
2023/06/16 07:05:15;;;;;;;9.17;5.03;;;;;;;;;;5073176;28;20044;-68
2023/06/16 07:07:41;;;;;;;6.18;5.00;;;;;;;;;;5077172;28;20025;-69
2023/06/16 07:10:10;;;;;;;9.95;5.43;;;;;;;;;;5059077;28;20389;-69
2023/06/16 07:12:36;;;;;;;5.90;4.90;;;;;;;;;;5076543;28;20043;-70
2023/06/16 07:15:01;;;;;;;8.52;4.93;;;;;;;;;;5075218;28;20039;-69
2023/06/16 07:17:26;;;;;;;6.77;4.70;;;;;;;;;;5075402;28;20101;-71
2023/06/16 07:19:51;;;;;;;10.63;4.67;;;;;;;;;;5073956;28;20040;-70
2023/06/16 07:22:17;;;;;;;12.02;5.32;;;;;;;;;;5074691;28;20013;-72
2023/06/16 07:24:42;;;;;;;7.47;5.03;;;;;;;;;;5074432;28;20024;-70
2023/06/16 07:27:08;;;;;;;10.07;4.72;;;;;;;;;;5074078;28;20294;-68
2023/06/16 07:29:33;;;;;;;9.90;4.70;;;;;;;;;;5056310;28;20017;-70
2023/06/16 07:31:58;;;;;;;12.43;5.17;;;;;;;;;;5074186;28;20496;-71
2023/06/16 07:34:24;;;;;;;5.53;4.70;;;;;;;;;;5076094;28;20352;-71
2023/06/16 07:36:49;;;;;;;6.40;4.60;;;;;;;;;;5076378;28;20120;-71
2023/06/16 07:39:14;;;;;;;6.20;5.43;;;;;;;;;;5076554;28;20270;-69
2023/06/16 07:41:40;;;;;;;6.50;5.80;;;;;;;;;;5075998;28;20029;-69
2023/06/16 07:44:05;;;;;;;8.00;5.10;;;;;;;;;;5076180;28;20028;-69
2023/06/16 07:46:32;;;;;;;10.02;6.07;;;;;;;;;;5076303;28;20278;-68
2023/06/16 07:48:57;;;;;;;11.45;5.38;;;;;;;;;;5075987;28;20461;-70
2023/06/16 07:51:22;;;;;;;10.60;5.03;;;;;;;;;;5057967;28;20077;-70
2023/06/16 07:53:51;;;;;;;9.60;5.30;;;;;;;;;;5057884;28;20069;-70
2023/06/16 07:56:16;;;;;;;10.95;5.68;;;;;;;;;;5075818;28;20400;-69
2023/06/16 07:58:42;;;;;;;12.55;5.72;;;;;;;;;;5076124;28;20429;-69
2023/06/16 08:01:07;;;;;;;12.35;5.38;;;;;;;;;;5076003;28;20547;-69
2023/06/16 08:03:32;;;;;;;9.88;5.65;;;;;;;;;;5075695;28;20039;-70
2023/06/16 08:05:58;;;;;;;5.40;4.90;;;;;;;;;;5075816;28;20035;-70
2023/06/16 08:08:27;;;;;;;7.23;5.17;;;;;;;;;;5075892;28;20355;-69
2023/06/16 08:10:53;;;;;;;8.13;5.10;;;;;;;;;;5073556;28;20271;-71
2023/06/16 08:13:19;;;;;;;5.07;4.57;;;;;;;;;;5076245;28;20240;-68
2023/06/16 08:15:44;;;;;;;5.83;4.60;;;;;;;;;;5076029;28;20048;-71
2023/06/16 08:18:10;;;;;;;6.47;4.80;;;;;;;;;;5075066;28;20078;-69
2023/06/16 08:20:35;;;;;;;6.20;4.70;;;;;;;;;;5075399;28;20106;-69
2023/06/16 08:23:00;;;;;;;12.97;5.30;;;;;;;;;;5075723;28;20354;-69
2023/06/16 08:25:26;;;;;;;7.27;5.00;;;;;;;;;;5075706;28;20028;-71
2023/06/16 08:27:51;;;;;;;8.45;4.95;;;;;;;;;;5075656;28;20118;-69
2023/06/16 08:30:16;;;;;;;6.47;4.68;;;;;;;;;;5075649;28;20064;-69
2023/06/16 08:32:42;;;;;;;8.90;5.05;;;;;;;;;;5075437;28;20032;-69
2023/06/16 08:35:07;;;;;;;8.65;5.53;;;;;;;;;;5075446;28;20036;-69
2023/06/16 08:37:32;;;;;;;7.68;5.15;;;;;;;;;;5075497;28;20031;-69
2023/06/16 08:39:58;;;;;;;11.00;5.10;;;;;;;;;;5075408;28;20078;-69
2023/06/16 08:42:23;;;;;;;6.93;5.03;;;;;;;;;;5075714;28;20263;-69
2023/06/16 08:44:50;;;;;;;9.27;4.90;;;;;;;;;;5075554;28;20031;-70
2023/06/16 08:47:15;;;;;;;8.75;5.20;;;;;;;;;;5057490;28;20454;-70
2023/06/16 08:49:42;;;;;;;7.45;5.15;;;;;;;;;;5075626;28;20066;-68
2023/06/16 08:52:08;;;;;;;8.63;5.53;;;;;;;;;;5075194;28;20077;-69
2023/06/16 08:54:46;;;;;;;9.27;5.22;;;;;;;;;;5074898;28;20347;-68
2023/06/16 08:57:13;;;;;;;6.05;4.20;;;;;;;;;;5075278;28;20017;-69
2023/06/16 08:59:39;;;;;;;7.13;4.57;;;;;;;;;;5057130;28;20021;-69
2023/06/16 09:02:05;;;;;;;24.15;5.03;;;;;;;;;;5075340;28;20071;-69
2023/06/16 09:04:33;;;;;;;6.93;4.95;;;;;;;;;;5075521;28;20052;-71
2023/06/16 09:06:59;;;;;;;9.38;4.40;;;;;;;;;;5074852;28;20025;-71
2023/06/16 09:09:24;;;;;;;9.48;4.72;;;;;;;;;;5074861;28;20029;-69
2023/06/16 09:12:07;;;;;;;7.13;4.03;;;;;;;;;;5074709;28;20111;-69
2023/06/16 09:14:33;;;;;;;5.93;4.60;;;;;;;;;;5074617;28;20366;-71
2023/06/16 09:17:01;;;;;;;5.05;4.55;;;;;;;;;;5074760;28;20024;-71
2023/06/16 09:19:26;;;;;;;4.93;4.00;;;;;;;;;;5074565;28;20052;-70
2023/06/16 09:21:56;;;;;;;7.63;4.13;;;;;;;;;;5074716;28;20031;-69
2023/06/16 09:24:26;;;;;;;7.47;4.03;;;;;;;;;;5074221;28;20122;-71
2023/06/16 09:26:52;;;;;;;8.07;4.53;;;;;;;;;;5074367;28;20074;-68
2023/06/16 09:29:21;;;;;;;5.38;4.35;;;;;;;;;;5073143;28;20027;-71
2023/06/16 09:31:47;;;;;;;9.10;4.65;;;;;;;;;;5074237;28;20024;-69
2023/06/16 09:34:12;;;;;;;5.47;4.35;;;;;;;;;;5074342;28;20017;-70
2023/06/16 09:36:38;;;;;;;6.30;4.60;;;;;;;;;;5074203;28;20031;-70
2023/06/16 09:39:07;;;;;;;6.50;3.90;;;;;;;;;;5074352;28;20052;-70
2023/06/16 09:41:35;;;;;;;5.78;3.95;;;;;;;;;;5074395;28;20111;-71
2023/06/16 09:44:02;;;;;;;3.92;3.60;;;;;;;;;;5073943;28;20087;-71
2023/06/16 09:46:28;;;;;;;4.93;4.20;;;;;;;;;;5074210;28;20112;-69
2023/06/16 09:48:54;;;;;;;5.57;3.35;;;;;;;;;;5055859;28;20031;-71
2023/06/16 09:51:20;;;;;;;5.05;3.75;;;;;;;;;;5073926;28;20024;-69
2023/06/16 09:53:48;;;;;;;4.25;3.60;;;;;;;;;;5074032;28;20513;-70
2023/06/16 09:56:17;;;;;;;6.15;4.10;;;;;;;;;;5073759;28;20020;-71
2023/06/16 09:58:43;;;;;;;5.68;3.53;;;;;;;;;;5073681;28;20024;-70
2023/06/16 10:01:10;;;;;;;7.82;4.20;;;;;;;;;;5073641;28;20024;-69
2023/06/16 10:03:37;;;;;;;6.30;3.55;;;;;;;;;;5073599;28;20578;-69
2023/06/16 10:06:05;;;;;;;6.75;3.50;;;;;;;;;;5074185;28;20024;-68
2023/06/16 10:08:31;;;;;;;4.72;3.53;;;;;;;;;;5073842;28;20035;-70
2023/06/16 10:10:56;;;;;;;5.35;3.55;;;;;;;;;;5074626;28;20103;-70
2023/06/16 10:13:22;;;;;;;5.37;3.53;;;;;;;;;;5074344;28;20134;-69
2023/06/16 10:15:50;;;;;;;5.50;3.65;;;;;;;;;;5074891;28;20728;-69
2023/06/16 10:18:16;;;;;;;5.05;3.30;;;;;;;;;;5073920;28;20017;-70
2023/06/16 10:20:42;;;;;;;5.57;3.80;;;;;;;;;;5093674;28;20054;-70
2023/06/16 10:23:09;;;;;;;6.13;3.97;;;;;;;;;;5093590;28;20052;-70
2023/06/16 10:25:34;;;;;;;5.60;3.70;;;;;;;;;;5093463;28;20349;-68
2023/06/16 10:28:05;;;;;;;6.72;4.07;;;;;;;;;;5093323;28;20031;-68
2023/06/16 10:30:31;;;;;;;8.65;4.00;;;;;;;;;;5093081;28;20074;-73
2023/06/16 10:32:57;;;;;;;6.32;3.85;;;;;;;;;;5084907;28;20465;-74
2023/06/16 10:35:22;;;;;;;9.65;3.78;;;;;;;;;;5073220;28;20108;-72
2023/06/16 10:37:49;;;;;;;5.60;3.30;;;;;;;;;;5073154;28;20099;-73
2023/06/16 10:40:17;;;;;;;6.32;4.00;;;;;;;;;;5072619;28;20012;-74
2023/06/16 10:42:42;;;;;;;7.40;4.35;;;;;;;;;;5073119;28;20073;-74
2023/06/16 10:45:28;;;;;;;5.25;3.88;;;;;;;;;;5072217;28;20415;-74
2023/06/16 10:47:55;;;;;;;4.47;3.95;;;;;;;;;;5087773;28;20350;-74
2023/06/16 10:50:28;;;;;;;13.73;4.22;;;;;;;;;;5092967;28;20427;-75
2023/06/16 10:52:54;;;;;;;6.97;3.42;;;;;;;;;;5093135;28;20024;-75
2023/06/16 10:55:38;;;;;;;5.60;3.58;;;;;;;;;;5074847;28;20020;-74
2023/06/16 10:58:15;;;;;;;4.50;3.20;;;;;;;;;;5075299;28;20022;-75
2023/06/16 11:00:44;;;;;;;5.53;3.45;;;;;;;;;;5093100;28;20521;-74
2023/06/16 11:03:10;;;;;;;4.60;2.70;;;;;;;;;;5093022;28;20108;-72
2023/06/16 11:05:41;;;;;;;4.65;3.03;;;;;;;;;;5093281;28;20043;-75
2023/06/16 11:08:08;;;;;;;4.68;3.45;;;;;;;;;;5093073;28;20085;-72
2023/06/16 11:10:57;;;;;;;6.68;2.80;;;;;;;;;;5092481;28;20473;-75
2023/06/16 11:13:25;;;;;;;14.98;5.13;;;;;;;;;;5092899;28;20024;-74
2023/06/16 11:15:52;;;;;;;5.55;2.92;;;;;;;;;;5093009;28;20095;-73
2023/06/16 11:18:22;;;;;;;4.95;3.30;;;;;;;;;;5092725;28;20108;-73
2023/06/16 11:20:48;;;;;;;3.75;3.40;;;;;;;;;;5092793;28;20050;-74
2023/06/16 11:23:13;;;;;;;6.97;2.97;;;;;;;;;;5093094;28;20493;-74
2023/06/16 11:25:39;;;;;;;4.57;3.20;;;;;;;;;;5093052;28;20262;-73
2023/06/16 11:28:04;;;;;;;5.30;3.38;;;;;;;;;;5092719;28;20016;-73
2023/06/16 11:30:30;;;;;;;4.80;3.22;;;;;;;;;;5092572;28;20076;-74
2023/06/16 11:32:57;;;;;;;4.32;3.90;;;;;;;;;;5092534;28;20012;-75
2023/06/16 11:35:28;;;;;;;4.00;3.22;;;;;;;;;;5092837;28;20058;-73
2023/06/16 11:37:57;;;;;;;8.77;3.42;;;;;;;;;;5092880;28;20468;-71
2023/06/16 11:40:26;;;;;;;4.53;2.95;;;;;;;;;;5092579;28;20016;-73
2023/06/16 11:42:52;;;;;;;6.03;3.20;;;;;;;;;;5093118;28;20073;-79
2023/06/16 11:45:17;;;;;;;6.40;2.65;;;;;;;;;;5093675;28;20016;-80
2023/06/16 11:47:43;;;;;;;4.93;2.50;;;;;;;;;;5093748;28;20012;-79
2023/06/16 11:50:08;;;;;;;2.87;2.63;;;;;;;;;;5092737;28;20269;-74
2023/06/16 11:52:34;;;;;;;6.25;2.60;;;;;;;;;;5093260;28;20254;-75
2023/06/16 11:55:00;;;;;;;3.80;2.22;;;;;;;;;;5096463;28;20020;-75
2023/06/16 11:57:26;;;;;;;12.57;2.40;;;;;;;;;;5096375;28;20429;-74
2023/06/16 11:59:51;;;;;;;5.00;2.10;;;;;;;;;;5096332;28;20380;-75
2023/06/16 12:02:17;;;;;;;11.32;2.45;;;;;;;;;;5096375;28;20035;-76
2023/06/16 12:04:43;;;;;;;17.23;2.60;;;;;;;;;;5096576;28;20465;-75
2023/06/16 12:07:08;;;;;;;5.93;1.73;;;;;;;;;;5096516;28;20493;-76
2023/06/16 12:09:37;;;;;;;2.60;1.60;;;;;;;;;;5096424;28;20151;-76
2023/06/16 12:12:03;;;;;;;5.57;2.30;;;;;;;;;;5096231;28;20293;-77
2023/06/16 12:14:28;;;;;;;7.47;2.33;;;;;;;;;;5077295;28;20475;-75
2023/06/16 12:16:53;;;;;;;2.70;2.20;;;;;;;;;;5096968;28;20044;-76
2023/06/16 12:19:20;;;;;;;5.07;1.95;;;;;;;;;;5097046;28;20278;-77
2023/06/16 12:21:53;;;;;;;2.83;2.20;;;;;;;;;;5100525;28;20050;-76
2023/06/16 12:24:21;;;;;;;5.90;2.50;;;;;;;;;;5100535;28;20026;-76
2023/06/16 12:26:47;;;;;;;7.30;2.50;;;;;;;;;;5098016;28;20023;-77
2023/06/16 12:29:15;;;;;;;5.85;2.60;;;;;;;;;;5097180;28;20538;-77
2023/06/16 12:31:53;;;;;;;5.03;2.78;;;;;;;;;;5101857;28;20028;-76
2023/06/16 12:34:22;;;;;;;3.95;3.13;;;;;;;;;;5106738;28;20024;-77
2023/06/16 12:36:47;;;;;;;4.43;3.00;;;;;;;;;;5097993;28;20036;-78
2023/06/16 12:39:18;;;;;;;5.90;3.10;;;;;;;;;;5097564;28;20503;-77
2023/06/16 12:41:44;;;;;;;;;;;;;;;;;;5098238;28;20035;-77
2023/06/16 12:44:09;;;;;;;2.90;2.60;;;;;;;;;;5097472;28;19904;-76
2023/06/16 12:46:34;;;;;;;5.67;3.40;;;;;;;;;;5095825;28;20020;-77
2023/06/16 12:48:59;;;;;;;11.87;4.57;;;;;;;;;;5095922;28;20285;-72
2023/06/16 12:51:25;;;;;;;3.97;3.33;;;;;;;;;;5093261;28;20031;-73
2023/06/16 12:53:50;;;;;;;8.40;3.70;;;;;;;;;;5093220;28;20286;-72
2023/06/16 12:56:15;;;;;;;4.03;3.58;;;;;;;;;;5093022;28;20627;-73
2023/06/16 12:58:41;;;;;;;7.57;3.90;;;;;;;;;;5093078;28;20012;-74
2023/06/16 13:01:06;;;;;;;7.88;3.92;;;;;;;;;;5093099;28;20020;-72
2023/06/16 13:03:32;;;;;;;4.15;3.70;;;;;;;;;;5092659;28;20031;-72
2023/06/16 13:05:57;;;;;;;6.22;3.35;;;;;;;;;;5093061;28;20032;-75
2023/06/16 13:08:23;;;;;;;5.35;3.63;;;;;;;;;;5094334;28;20043;-71
2023/06/16 13:10:48;;;;;;;4.97;3.17;;;;;;;;;;5093027;28;20031;-72
2023/06/16 13:13:13;;;;;;;6.53;3.60;;;;;;;;;;5092870;28;20485;-72
2023/06/16 13:15:38;;;;;;;7.70;3.50;;;;;;;;;;5092790;28;20266;-73
2023/06/16 13:18:05;;;;;;;7.17;3.80;;;;;;;;;;5092692;28;20288;-72
2023/06/16 13:20:30;;;;;;;4.18;3.30;;;;;;;;;;5092417;28;20344;-73
2023/06/16 13:22:56;;;;;;;4.43;3.50;;;;;;;;;;5093002;28;20060;-73
2023/06/16 13:25:21;;;;;;;7.15;4.03;;;;;;;;;;5094489;28;20028;-72
2023/06/16 13:27:46;;;;;;;6.47;4.55;;;;;;;;;;5095065;28;20039;-71
2023/06/16 13:30:12;;;;;;;6.37;4.00;;;;;;;;;;5095130;28;20119;-72
2023/06/16 13:32:37;;;;;;;5.82;3.65;;;;;;;;;;5094919;28;20012;-73
2023/06/16 13:35:02;;;;;;;4.40;3.73;;;;;;;;;;5094724;28;20024;-70
2023/06/16 13:37:27;;;;;;;4.07;3.60;;;;;;;;;;5094589;28;20790;-72
2023/06/16 13:39:53;;;;;;;5.93;3.77;;;;;;;;;;5076351;28;20031;-73
2023/06/16 13:42:18;;;;;;;5.10;3.80;;;;;;;;;;5094821;28;20262;-71
2023/06/16 13:44:44;;;;;;;7.88;3.38;;;;;;;;;;5094710;28;20274;-72
2023/06/16 13:47:10;;;;;;;4.18;3.40;;;;;;;;;;5095212;28;20020;-73
2023/06/16 13:49:36;;;;;;;6.15;3.83;;;;;;;;;;5094467;28;20051;-72
2023/06/16 13:52:02;;;;;;;4.07;3.30;;;;;;;;;;5076072;28;20437;-72
2023/06/16 13:54:27;;;;;;;5.63;3.33;;;;;;;;;;5094288;28;20464;-73
2023/06/16 13:56:52;;;;;;;3.50;3.20;;;;;;;;;;5094226;28;20051;-72
2023/06/16 13:59:18;;;;;;;6.60;3.33;;;;;;;;;;5094525;28;20266;-72
2023/06/16 14:01:43;;;;;;;3.35;3.00;;;;;;;;;;5094161;28;20285;-73
2023/06/16 14:04:08;;;;;;;6.63;3.40;;;;;;;;;;5094144;28;20031;-71
2023/06/16 14:06:34;;;;;;;7.23;3.03;;;;;;;;;;5094139;28;20596;-74
2023/06/16 14:08:59;;;;;;;5.33;3.23;;;;;;;;;;5094139;28;20280;-73
2023/06/16 14:11:24;;;;;;;5.35;3.35;;;;;;;;;;5095077;28;20681;-73
2023/06/16 14:13:50;;;;;;;5.90;3.23;;;;;;;;;;5096576;28;20023;-72
2023/06/16 14:16:15;;;;;;;8.38;3.83;;;;;;;;;;5096211;28;20024;-72
2023/06/16 14:18:41;;;;;;;5.27;4.40;;;;;;;;;;5096095;28;20026;-73
2023/06/16 14:21:06;;;;;;;5.23;3.67;;;;;;;;;;5094223;28;20609;-71
2023/06/16 14:23:31;;;;;;;6.20;3.20;;;;;;;;;;5076666;28;20027;-72
2023/06/16 14:25:56;;;;;;;3.95;3.50;;;;;;;;;;5094303;28;20285;-72
2023/06/16 14:28:22;;;;;;;6.97;3.63;;;;;;;;;;5093837;28;20373;-70
2023/06/16 14:30:47;;;;;;;6.10;3.67;;;;;;;;;;5093469;28;20274;-71
2023/06/16 14:33:12;;;;;;;6.37;3.90;;;;;;;;;;5093620;28;20077;-73